createdAt,value
2018-06-21T00:00:42.005Z,67.10
2018-06-21T00:03:12.833Z,59.50
2018-06-21T00:05:43.101Z,61.20
2018-06-21T00:08:18.297Z,91.60
2018-06-21T00:10:49.508Z,59.03
2018-06-21T00:13:19.882Z,65.50
2018-06-21T00:26:36.856Z,70.00
2018-06-21T00:29:07.930Z,59.77
2018-06-21T00:31:39.095Z,80.50
2018-06-21T00:34:10.221Z,66.97
2018-06-21T00:36:41.754Z,48.60
2018-06-21T00:39:13.298Z,42.47
2018-06-21T00:41:44.703Z,42.70
2018-06-21T00:44:15.298Z,41.77
2018-06-21T00:46:45.494Z,45.13
2018-06-21T00:49:15.721Z,28.60
2018-06-21T00:51:46.893Z,25.37
2018-06-21T00:54:17.132Z,22.30
2018-06-21T00:56:47.321Z,30.23
2018-06-21T00:59:17.678Z,31.27
2018-06-21T01:01:47.718Z,19.37
2018-06-21T01:04:17.953Z,32.03
2018-06-21T01:06:48.249Z,38.30
2018-06-21T01:09:18.404Z,35.70
2018-06-21T01:11:48.661Z,46.73
2018-06-21T01:14:18.830Z,47.73
2018-06-21T01:16:49.051Z,38.87
2018-06-21T01:19:19.512Z,41.13
2018-06-21T01:21:49.305Z,50.37
2018-06-21T01:24:18.909Z,62.97
2018-06-21T01:26:48.349Z,64.60
2018-06-21T01:29:18.535Z,59.83
2018-06-21T01:31:48.178Z,69.53
2018-06-21T01:34:18.910Z,47.67
2018-06-21T01:36:49.098Z,53.83
2018-06-21T01:39:18.794Z,39.23
2018-06-21T01:41:48.453Z,34.77
2018-06-21T01:44:18.720Z,23.23
2018-06-21T01:46:49.108Z,40.13
2018-06-21T01:49:20.502Z,35.70
2018-06-21T01:51:50.733Z,35.63
2018-06-21T01:54:20.901Z,12.97
2018-06-21T01:56:51.844Z,14.23
2018-06-21T01:59:22.208Z,17.33
2018-06-21T02:01:52.625Z,15.43
2018-06-21T02:04:22.967Z,27.27
2018-06-21T02:06:53.452Z,20.87
2018-06-21T02:09:24.385Z,23.60
2018-06-21T02:11:54.791Z,16.17
2018-06-21T02:14:24.920Z,23.83
2018-06-21T02:16:55.215Z,28.60
2018-06-21T02:19:25.600Z,18.40
2018-06-21T02:21:56.042Z,23.83
2018-06-21T02:24:26.265Z,19.17
2018-06-21T02:26:56.563Z,11.53
2018-06-21T02:29:26.886Z,12.23
2018-06-21T02:31:57.350Z,15.93
2018-06-21T02:34:27.833Z,9.40
2018-06-21T02:36:58.096Z,19.37
2018-06-21T02:39:28.238Z,16.30
2018-06-21T02:41:58.488Z,8.07
2018-06-21T02:44:28.819Z,16.57
2018-06-21T02:46:59.037Z,8.80
2018-06-21T02:49:29.223Z,14.63
2018-06-21T02:51:59.587Z,9.30
2018-06-21T02:54:29.624Z,7.83
2018-06-21T02:56:59.877Z,14.13
2018-06-21T02:59:29.910Z,9.73
2018-06-21T03:02:00.388Z,12.83
2018-06-21T03:04:30.886Z,17.57
2018-06-21T03:07:01.224Z,8.53
2018-06-21T03:09:31.449Z,4.60
2018-06-21T03:12:01.773Z,8.47
2018-06-21T03:14:32.870Z,26.60
2018-06-21T03:17:03.434Z,28.10
2018-06-21T03:19:33.641Z,35.97
2018-06-21T03:22:04.949Z,17.13
2018-06-21T03:24:35.463Z,11.13
2018-06-21T03:27:06.430Z,10.23
2018-06-21T03:29:37.316Z,12.60
2018-06-21T03:32:07.524Z,26.93
2018-06-21T03:34:38.112Z,16.83
2018-06-21T03:37:08.431Z,13.80
2018-06-21T03:39:38.699Z,24.70
2018-06-21T03:42:09.963Z,21.40
2018-06-21T03:47:19.678Z,24.37
2018-06-21T03:49:50.139Z,23.33
2018-06-21T03:52:21.040Z,18.60
2018-06-21T03:54:51.306Z,24.33
2018-06-21T03:57:21.816Z,18.30
2018-06-21T03:59:52.194Z,13.83
2018-06-21T04:02:22.640Z,15.30
2018-06-21T04:04:53.104Z,14.47
2018-06-21T04:07:23.507Z,26.00
2018-06-21T04:09:53.794Z,25.03
2018-06-21T04:12:25.427Z,27.63
2018-06-21T04:14:55.880Z,29.30
2018-06-21T04:17:26.372Z,29.33
2018-06-21T04:19:56.784Z,22.57
2018-06-21T04:22:27.073Z,25.53
2018-06-21T04:24:56.799Z,25.60
2018-06-21T04:27:27.114Z,18.87
2018-06-21T04:29:57.653Z,26.77
2018-06-21T04:32:28.155Z,25.20
2018-06-21T04:34:58.438Z,19.90
2018-06-21T04:37:28.974Z,17.20
2018-06-21T04:39:59.208Z,19.63
2018-06-21T04:45:14.577Z,46.70
2018-06-21T04:47:45.656Z,61.70
2018-06-21T04:50:16.013Z,80.00
2018-06-21T04:52:46.276Z,55.70
2018-06-21T04:55:16.552Z,63.67
2018-06-21T04:57:46.719Z,79.97
2018-06-21T05:00:17.112Z,55.93
2018-06-21T05:02:47.420Z,64.17
2018-06-21T05:05:17.736Z,46.50
2018-06-21T05:07:48.273Z,78.37
2018-06-21T05:10:18.502Z,62.00
2018-06-21T05:12:48.636Z,67.30
2018-06-21T05:15:18.811Z,81.07
2018-06-21T05:17:49.142Z,87.60
2018-06-21T05:20:19.714Z,76.13
2018-06-21T05:22:50.053Z,74.57
2018-06-21T05:25:20.125Z,63.10
2018-06-21T05:27:50.490Z,69.30
2018-06-21T05:30:20.707Z,83.00
2018-06-21T05:32:50.852Z,66.27
2018-06-21T05:35:21.079Z,74.87
2018-06-21T05:37:51.238Z,62.70
2018-06-21T05:40:29.207Z,49.67
2018-06-21T05:43:00.589Z,62.83
2018-06-21T05:45:30.929Z,79.00
2018-06-21T05:48:02.411Z,73.10
2018-06-21T05:50:33.755Z,44.03
2018-06-21T05:53:04.095Z,53.67
2018-06-21T05:55:35.069Z,41.23
2018-06-21T05:58:05.405Z,48.77
2018-06-21T06:00:35.946Z,39.87
2018-06-21T06:03:07.098Z,23.83
2018-06-21T06:05:37.325Z,15.90
2018-06-21T06:08:07.569Z,48.23
2018-06-21T06:10:37.949Z,230.93
2018-06-21T06:13:07.525Z,21.07
2018-06-21T06:15:38.189Z,18.95
2018-06-21T06:18:08.762Z,15.95
2018-06-21T06:20:39.084Z,13.53
2018-06-21T06:23:09.234Z,11.85
2018-06-21T06:25:39.651Z,11.33
2018-06-21T06:28:09.994Z,9.50
2018-06-21T06:30:39.744Z,8.58
2018-06-21T06:33:09.904Z,10.55
2018-06-21T06:35:40.058Z,8.63
2018-06-21T06:38:10.594Z,12.07
2018-06-21T06:40:40.850Z,7.08
2018-06-21T06:43:11.100Z,5.55
2018-06-21T06:45:41.602Z,10.53
2018-06-21T06:48:11.856Z,13.32
2018-06-21T06:50:42.004Z,10.38
2018-06-21T06:53:11.646Z,9.30
2018-06-21T06:55:41.900Z,7.97
2018-06-21T06:58:12.091Z,12.43
2018-06-21T07:00:43.363Z,9.50
2018-06-21T07:03:13.574Z,13.88
2018-06-21T07:05:44.145Z,6.67
2018-06-21T07:08:14.347Z,10.28
2018-06-21T07:10:44.540Z,9.00
2018-06-21T07:13:14.957Z,10.90
2018-06-21T07:15:45.487Z,6.45
2018-06-21T07:18:15.745Z,10.00
2018-06-21T07:20:48.365Z,11.05
2018-06-21T07:23:19.681Z,16.65
2018-06-21T07:25:52.447Z,16.67
2018-06-21T07:28:23.265Z,11.22
2018-06-21T07:30:53.723Z,16.62
2018-06-21T07:33:24.088Z,12.20
2018-06-21T07:35:54.590Z,6.58
2018-06-21T07:38:25.045Z,6.05
2018-06-21T07:40:55.489Z,8.85
2018-06-21T07:43:25.694Z,7.72
2018-06-21T07:45:56.266Z,10.38
2018-06-21T07:48:27.009Z,9.98
2018-06-21T07:50:57.290Z,9.05
2018-06-21T07:53:27.593Z,7.95
2018-06-21T07:55:57.977Z,9.88
2018-06-21T07:58:28.222Z,10.65
2018-06-21T08:00:58.735Z,8.25
2018-06-21T08:03:30.563Z,8.68
2018-06-21T08:06:01.084Z,5.87
2018-06-21T08:08:31.896Z,18.32
2018-06-21T08:11:03.859Z,10.38
2018-06-21T08:13:34.586Z,9.63
2018-06-21T08:16:06.364Z,6.83
2018-06-21T08:18:36.914Z,7.80
2018-06-21T08:21:07.424Z,9.13
2018-06-21T08:23:37.686Z,6.33
2018-06-21T08:26:08.068Z,7.05
2018-06-21T08:28:38.372Z,6.95
2018-06-21T08:31:08.709Z,11.75
2018-06-21T08:33:38.959Z,6.85
2018-06-21T08:36:09.374Z,8.63
2018-06-21T08:38:39.650Z,7.67
2018-06-21T08:41:10.043Z,8.53
2018-06-21T08:43:40.778Z,8.35
2018-06-21T08:46:11.818Z,5.62
2018-06-21T08:48:42.072Z,10.15
2018-06-21T08:51:12.600Z,9.73
2018-06-21T08:53:42.885Z,8.48
2018-06-21T08:56:13.193Z,9.40
2018-06-21T08:58:43.560Z,8.60
2018-06-21T09:01:14.222Z,7.65
2018-06-21T09:03:44.451Z,8.15
2018-06-21T09:06:14.276Z,8.50
2018-06-21T09:08:44.447Z,13.78
2018-06-21T09:11:14.728Z,11.60
2018-06-21T09:13:45.020Z,7.37
2018-06-21T09:16:15.549Z,13.08
2018-06-21T09:18:47.295Z,7.20
2018-06-21T09:21:17.683Z,11.97
2018-06-21T09:23:47.959Z,8.40
2018-06-21T09:26:18.422Z,10.85
2018-06-21T09:28:48.650Z,7.03
2018-06-21T09:31:19.216Z,7.50
2018-06-21T09:33:49.641Z,10.70
2018-06-21T09:36:20.171Z,8.50
2018-06-21T09:38:55.566Z,11.63
2018-06-21T09:41:31.111Z,6.40
2018-06-21T09:44:35.528Z,10.10
2018-06-21T09:47:11.185Z,11.10
2018-06-21T09:49:41.839Z,8.83
2018-06-21T09:52:14.226Z,8.55
2018-06-21T09:54:44.939Z,12.95
2018-06-21T09:57:15.530Z,9.43
2018-06-21T09:59:46.013Z,6.15
2018-06-21T10:02:16.418Z,5.97
2018-06-21T10:04:46.554Z,5.12
2018-06-21T10:07:16.822Z,9.13
2018-06-21T10:09:47.271Z,5.50
2018-06-21T10:12:18.490Z,7.10
2018-06-21T10:14:48.281Z,9.95
2018-06-21T10:17:19.546Z,6.87
2018-06-21T10:19:50.534Z,5.53
2018-06-21T10:22:20.287Z,6.55
2018-06-21T10:24:50.706Z,9.33
2018-06-21T10:27:21.229Z,5.30
2018-06-21T10:29:51.663Z,8.68
2018-06-21T10:32:22.216Z,8.93
2018-06-21T10:34:52.648Z,10.55
2018-06-21T10:37:23.185Z,5.08
2018-06-21T10:39:53.623Z,3.90
2018-06-21T10:42:23.881Z,7.08
2018-06-21T10:44:54.096Z,6.17
2018-06-21T10:47:24.586Z,7.03
2018-06-21T10:49:55.007Z,9.13
2018-06-21T10:52:26.837Z,6.53
2018-06-21T10:54:57.599Z,4.15
2018-06-21T10:57:28.028Z,8.15
2018-06-21T10:59:58.374Z,8.78
2018-06-21T11:02:29.586Z,6.15
2018-06-21T11:04:59.812Z,5.08
2018-06-21T11:07:30.771Z,7.30
2018-06-21T11:10:01.952Z,6.17
2018-06-21T11:12:32.407Z,9.68
2018-06-21T11:15:02.405Z,6.42
2018-06-21T11:17:32.676Z,8.00
2018-06-21T11:20:02.970Z,10.53
2018-06-21T11:22:33.497Z,8.45
2018-06-21T11:25:03.435Z,11.55
2018-06-21T11:27:33.612Z,8.05
2018-06-21T11:30:04.175Z,11.30
2018-06-21T11:32:34.328Z,9.55
2018-06-21T11:35:04.594Z,9.20
2018-06-21T11:37:35.075Z,6.45
2018-06-21T11:40:05.456Z,8.50
2018-06-21T11:42:35.921Z,7.30
2018-06-21T11:45:06.624Z,7.12
2018-06-21T11:47:36.640Z,10.90
2018-06-21T11:50:06.900Z,11.50
2018-06-21T11:52:37.274Z,11.68
2018-06-21T11:55:07.924Z,11.20
2018-06-21T11:57:38.761Z,7.10
2018-06-21T12:00:09.188Z,9.63
2018-06-21T12:02:39.455Z,5.70
2018-06-21T12:05:09.918Z,14.15
2018-06-21T12:07:40.566Z,9.53
2018-06-21T12:10:10.767Z,8.23
2018-06-21T12:12:41.664Z,7.62
2018-06-21T12:15:12.171Z,12.10
2018-06-21T12:17:43.524Z,5.90
2018-06-21T12:20:14.214Z,7.47
2018-06-21T12:22:44.459Z,9.68
2018-06-21T12:25:15.143Z,8.78
2018-06-21T12:27:46.013Z,10.65
2018-06-21T12:30:17.165Z,5.85
2018-06-21T12:32:47.674Z,8.68
2018-06-21T12:35:19.747Z,6.05
2018-06-21T12:37:53.397Z,4.25
2018-06-21T12:40:23.715Z,7.35
2018-06-21T12:42:55.653Z,4.05
2018-06-21T12:45:26.375Z,6.97
2018-06-21T12:47:56.933Z,5.60
2018-06-21T12:50:27.241Z,4.95
2018-06-21T12:52:58.673Z,4.37
2018-06-21T12:55:29.127Z,6.70
2018-06-21T12:58:01.211Z,6.50
2018-06-21T13:00:32.027Z,6.35
2018-06-21T13:03:02.692Z,3.47
2018-06-21T13:05:34.529Z,6.83
2018-06-21T13:08:05.081Z,6.37
2018-06-21T13:10:46.076Z,6.83
2018-06-21T13:13:21.289Z,2.00
2018-06-21T13:15:51.953Z,4.97
2018-06-21T13:18:22.491Z,4.12
2018-06-21T13:20:53.495Z,3.70
2018-06-21T13:23:24.087Z,8.35
2018-06-21T13:25:54.224Z,14.70
2018-06-21T13:28:24.660Z,5.80
2018-06-21T13:30:55.276Z,9.45
2018-06-21T13:33:25.740Z,4.17
2018-06-21T13:35:56.275Z,6.33
2018-06-21T13:38:27.175Z,3.33
2018-06-21T13:40:58.237Z,8.35
2018-06-21T13:43:30.945Z,7.35
2018-06-21T13:46:01.520Z,5.75
2018-06-21T13:48:31.733Z,3.55
2018-06-21T13:51:02.089Z,5.00
2018-06-21T13:53:32.097Z,2.62
2018-06-21T13:56:02.426Z,5.12
2018-06-21T13:58:32.802Z,4.65
2018-06-21T14:01:03.362Z,3.30
2018-06-21T14:03:33.976Z,2.50
2018-06-21T14:06:03.564Z,2.80
2018-06-21T14:08:33.317Z,3.27
2018-06-21T14:11:02.936Z,6.62
2018-06-21T14:13:33.245Z,6.47
2018-06-21T14:16:03.642Z,4.30
2018-06-21T14:18:34.055Z,7.90
2018-06-21T14:21:03.953Z,16.07
2018-06-21T14:23:34.153Z,7.90
2018-06-21T14:26:04.448Z,4.78
2018-06-21T14:28:35.086Z,6.15
2018-06-21T14:31:05.491Z,4.33
2018-06-21T14:33:35.503Z,3.77
2018-06-21T14:36:05.977Z,3.58
2018-06-21T14:38:37.564Z,3.62
2018-06-21T14:41:08.931Z,3.70
2018-06-21T14:43:39.334Z,3.95
2018-06-21T14:46:09.673Z,1.67
2018-06-21T14:48:40.160Z,3.75
2018-06-21T14:51:10.411Z,3.52
2018-06-21T14:53:40.623Z,2.90
2018-06-21T14:56:10.463Z,2.60
2018-06-21T14:58:40.290Z,3.83
2018-06-21T15:01:10.370Z,1.47
2018-06-21T15:03:40.583Z,7.42
2018-06-21T15:06:11.084Z,2.45
2018-06-21T15:08:41.407Z,3.10
2018-06-21T15:11:11.888Z,1.75
2018-06-21T15:13:42.521Z,2.15
2018-06-21T15:16:12.234Z,5.22
2018-06-21T15:18:42.914Z,5.08
2018-06-21T15:21:13.121Z,5.17
2018-06-21T15:23:43.860Z,13.72
2018-06-21T15:26:14.148Z,3.42
2018-06-21T15:28:44.120Z,3.60
2018-06-21T15:31:14.455Z,1.82
2018-06-21T15:33:44.451Z,4.47
2018-06-21T15:36:14.757Z,2.52
2018-06-21T15:38:44.755Z,2.40
2018-06-21T15:41:14.269Z,7.03
2018-06-21T15:43:44.386Z,1.70
2018-06-21T15:46:14.471Z,3.42
2018-06-21T15:48:44.962Z,5.33
2018-06-21T15:51:15.534Z,3.33
2018-06-21T15:53:45.915Z,3.20
2018-06-21T15:56:16.261Z,3.62
2018-06-21T15:58:46.240Z,2.80
2018-06-21T16:01:16.849Z,3.90
2018-06-21T16:03:46.693Z,2.40
2018-06-21T16:06:16.953Z,4.37
2018-06-21T16:08:47.659Z,2.58
2018-06-21T16:11:17.977Z,6.50
2018-06-21T16:13:48.415Z,2.20
2018-06-21T16:16:18.743Z,3.83
2018-06-21T16:18:49.580Z,3.00
2018-06-21T16:21:20.347Z,5.30
2018-06-21T16:23:50.177Z,3.00
2018-06-21T16:26:20.978Z,6.78
2018-06-21T16:28:51.881Z,1.90
2018-06-21T16:31:22.315Z,3.87
2018-06-21T16:33:52.937Z,3.15
2018-06-21T16:36:24.453Z,4.85
2018-06-21T16:38:54.643Z,2.25
2018-06-21T16:41:24.999Z,6.75
2018-06-21T16:43:54.849Z,6.03
2018-06-21T16:46:25.152Z,6.03
2018-06-21T16:48:55.582Z,2.70
2018-06-21T16:51:26.186Z,2.42
2018-06-21T16:53:57.073Z,5.42
2018-06-21T16:56:27.664Z,5.37
2018-06-21T16:58:57.838Z,4.92
2018-06-21T17:01:28.758Z,4.67
2018-06-21T17:03:59.226Z,4.35
2018-06-21T17:06:29.712Z,4.97
2018-06-21T17:08:59.983Z,7.33
2018-06-21T17:11:30.201Z,8.33
2018-06-21T17:14:00.388Z,4.12
2018-06-21T17:16:31.066Z,4.78
2018-06-21T17:19:00.927Z,4.00
2018-06-21T17:21:30.924Z,2.62
2018-06-21T17:24:01.281Z,4.10
2018-06-21T17:26:31.574Z,7.08
2018-06-21T17:31:45.256Z,4.80
2018-06-21T17:34:15.477Z,7.92
2018-06-21T17:36:46.043Z,6.60
2018-06-21T17:39:16.619Z,5.33
2018-06-21T17:41:47.180Z,5.62
2018-06-21T17:44:18.129Z,3.58
2018-06-21T17:46:48.510Z,4.03
2018-06-21T17:49:18.713Z,4.50
2018-06-21T17:51:49.018Z,4.12
2018-06-21T17:54:19.704Z,5.05
2018-06-21T17:56:49.905Z,6.72
2018-06-21T17:59:20.493Z,6.78
2018-06-21T18:01:50.866Z,3.00
2018-06-21T18:04:21.634Z,5.90
2018-06-21T18:06:52.587Z,6.35
2018-06-21T18:09:23.774Z,4.20
2018-06-21T18:11:54.711Z,3.70
2018-06-21T18:14:25.648Z,4.22
2018-06-21T18:16:57.856Z,4.00
2018-06-21T18:19:29.536Z,4.42
2018-06-21T18:22:01.404Z,4.50
2018-06-21T18:24:33.335Z,5.53
2018-06-21T18:27:07.239Z,3.83
2018-06-21T18:29:37.831Z,5.75
2018-06-21T18:32:11.825Z,3.80
2018-06-21T18:34:42.696Z,6.58
2018-06-21T18:37:13.094Z,8.00
2018-06-21T18:39:43.500Z,4.72
2018-06-21T18:42:13.947Z,3.40
2018-06-21T18:44:45.533Z,5.15
2018-06-21T18:47:16.827Z,7.53
2018-06-21T18:49:48.011Z,3.52
2018-06-21T18:52:18.636Z,8.98
2018-06-21T18:54:52.655Z,2.58
2018-06-21T18:57:24.424Z,10.10
2018-06-21T18:59:56.029Z,5.95
2018-06-21T19:02:27.224Z,4.37
2018-06-21T19:04:58.529Z,7.12
2018-06-21T19:07:34.076Z,8.58
2018-06-21T19:10:09.669Z,14.73
2018-06-21T19:12:40.479Z,7.47
2018-06-21T19:15:12.811Z,5.67
2018-06-21T19:17:43.739Z,8.40
2018-06-21T19:20:15.812Z,21.77
2018-06-21T19:22:48.149Z,8.33
2018-06-21T19:25:19.220Z,15.68
2018-06-21T19:27:50.925Z,4.35
2018-06-21T19:30:22.393Z,6.83
2018-06-21T19:32:54.878Z,6.53
2018-06-21T19:35:28.221Z,2.75
2018-06-21T19:37:59.400Z,5.72
2018-06-21T19:40:36.818Z,4.17
2018-06-21T19:43:07.743Z,7.40
2018-06-21T19:45:42.290Z,6.87
2018-06-21T19:48:13.470Z,4.72
2018-06-21T19:50:45.189Z,5.10
2018-06-21T19:53:16.490Z,4.07
2018-06-21T19:55:47.947Z,4.90
2018-06-21T19:58:18.421Z,10.13
2018-06-21T20:00:49.237Z,4.00
2018-06-21T20:03:23.278Z,3.57
2018-06-21T20:05:54.819Z,7.00
2018-06-21T20:08:25.112Z,10.05
2018-06-21T20:11:01.063Z,5.97
2018-06-21T20:13:41.837Z,5.83
2018-06-21T20:16:14.945Z,4.20
2018-06-21T20:18:50.528Z,8.50
2018-06-21T20:21:24.795Z,12.35
2018-06-21T20:24:00.445Z,10.17
2018-06-21T20:26:32.987Z,12.03
2018-06-21T20:29:09.830Z,17.93
2018-06-21T20:31:42.034Z,7.87
2018-06-21T20:34:15.349Z,11.33
2018-06-21T20:36:47.903Z,5.70
2018-06-21T20:39:22.729Z,7.37
2018-06-21T20:41:56.513Z,3.67
2018-06-21T20:44:31.069Z,2.02
2018-06-21T20:47:03.313Z,3.42
2018-06-21T20:49:37.767Z,2.80
2018-06-21T20:52:19.807Z,6.00
2018-06-21T20:54:52.686Z,3.27
2018-06-21T20:57:27.145Z,1.82
2018-06-21T21:00:00.866Z,6.30
2018-06-21T21:02:33.671Z,4.17
2018-06-21T21:05:07.000Z,4.58
2018-06-21T21:07:40.215Z,6.12
2018-06-21T21:10:13.727Z,4.33
2018-06-21T21:12:46.305Z,4.00
2018-06-21T21:15:19.945Z,4.58
2018-06-21T21:17:51.764Z,5.35
2018-06-21T21:20:26.829Z,2.37
2018-06-21T21:22:59.315Z,2.40
2018-06-21T21:25:33.661Z,1.98
2018-06-21T21:28:08.020Z,3.67
2018-06-21T21:30:44.330Z,5.65
2018-06-21T21:33:16.661Z,6.50
2018-06-21T21:35:48.558Z,6.83
2018-06-21T21:38:26.158Z,3.45
2018-06-21T21:41:00.675Z,2.05
2018-06-21T21:43:32.863Z,2.50
2018-06-21T21:46:05.737Z,4.05
2018-06-21T21:48:37.293Z,4.35
2018-06-21T21:51:13.499Z,7.60
2018-06-21T21:53:49.276Z,1.90
2018-06-21T21:56:24.566Z,4.37
2018-06-21T21:58:59.617Z,3.87
2018-06-21T22:01:31.519Z,1.85
2018-06-21T22:04:02.157Z,4.70
2018-06-21T22:06:32.774Z,8.15
2018-06-21T22:09:05.300Z,5.30
2018-06-21T22:11:37.937Z,4.95
2018-06-21T22:14:09.738Z,3.12
2018-06-21T22:16:40.810Z,8.93
2018-06-21T22:19:12.846Z,4.42
2018-06-21T22:21:43.566Z,8.08
2018-06-21T22:24:14.761Z,7.80
2018-06-21T22:26:45.361Z,6.55
2018-06-21T22:29:17.364Z,5.22
2018-06-21T22:31:50.881Z,17.52
2018-06-21T22:34:22.656Z,7.33
2018-06-21T22:36:57.210Z,7.42
2018-06-21T22:39:27.558Z,9.08
2018-06-21T22:41:57.790Z,4.90
2018-06-21T22:44:27.997Z,2.10
2018-06-21T22:46:58.431Z,9.05
2018-06-21T22:49:28.678Z,4.97
2018-06-21T22:51:58.945Z,3.45
2018-06-21T22:54:29.482Z,3.62
2018-06-21T22:56:59.813Z,10.05
2018-06-21T22:59:29.918Z,16.42
2018-06-21T23:02:00.084Z,14.78
2018-06-21T23:04:30.326Z,13.40
2018-06-21T23:07:00.540Z,8.50
2018-06-21T23:09:30.961Z,5.47
2018-06-21T23:12:01.547Z,18.70
2018-06-21T23:14:32.005Z,12.50
2018-06-21T23:17:02.298Z,9.38
2018-06-21T23:19:33.664Z,9.00
2018-06-21T23:22:04.253Z,16.30
2018-06-21T23:24:34.516Z,13.70
2018-06-21T23:27:04.589Z,5.40
2018-06-21T23:29:34.699Z,20.92
2018-06-21T23:32:05.400Z,19.70
2018-06-21T23:34:35.805Z,24.00
2018-06-21T23:37:06.017Z,23.87
2018-06-21T23:39:36.306Z,12.28
2018-06-21T23:42:06.703Z,21.68
2018-06-21T23:44:36.935Z,39.38
2018-06-21T23:47:07.205Z,17.98
2018-06-21T23:49:37.565Z,24.77
2018-06-21T23:52:07.797Z,18.98
2018-06-21T23:54:38.301Z,26.25
2018-06-21T23:57:08.469Z,11.63
2018-06-21T23:59:38.701Z,23.75
